sensor_id;sensor_type;location;lat;lon;timestamp;pressure;altitude;pressure_sealevel;temperature;humidity
63096;BME280;49184;55.596;37.770;2023-08-30T06:31:12;99585.25;;;18.46;63.18
63096;BME280;49184;55.596;37.770;2023-08-30T06:50:24;99585.44;;;18.22;62.69
63096;BME280;49184;55.596;37.770;2023-08-30T06:52:50;99567.69;;;18.23;62.34
63096;BME280;49184;55.596;37.770;2023-08-30T06:55:18;99529.94;;;18.15;62.57
63096;BME280;49184;55.596;37.770;2023-08-30T06:57:48;99529.47;;;18.28;61.85
63096;BME280;49184;55.596;37.770;2023-08-30T07:00:16;99549.81;;;18.36;61.64
63096;BME280;49184;55.596;37.770;2023-08-30T07:02:42;99557.22;;;18.48;62.14
63096;BME280;49184;55.596;37.770;2023-08-30T07:05:14;99602.56;;;18.75;62.28
63096;BME280;49184;55.596;37.770;2023-08-30T07:07:44;99591.28;;;18.68;61.60
63096;BME280;49184;55.596;37.770;2023-08-30T07:10:10;99588.34;;;18.61;61.13
63096;BME280;49184;55.596;37.770;2023-08-30T07:12:37;99536.69;;;18.33;61.69
63096;BME280;49184;55.596;37.770;2023-08-30T07:15:05;99599.50;;;18.80;61.79
63096;BME280;49184;55.596;37.770;2023-08-30T07:17:31;99574.94;;;18.78;62.07
63096;BME280;49184;55.596;37.770;2023-08-30T07:19:57;99595.75;;;19.08;62.19
63096;BME280;49184;55.596;37.770;2023-08-30T07:22:24;99576.13;;;18.97;60.64
63096;BME280;49184;55.596;37.770;2023-08-30T07:24:51;99581.25;;;18.95;60.22
63096;BME280;49184;55.596;37.770;2023-08-30T07:27:17;99582.09;;;18.80;60.58
63096;BME280;49184;55.596;37.770;2023-08-30T07:29:43;99562.06;;;18.70;60.53
63096;BME280;49184;55.596;37.770;2023-08-30T07:32:10;99593.56;;;18.97;60.50
63096;BME280;49184;55.596;37.770;2023-08-30T07:34:39;99552.88;;;18.66;62.05
63096;BME280;49184;55.596;37.770;2023-08-30T07:37:17;99590.47;;;18.83;60.07
63096;BME280;49184;55.596;37.770;2023-08-30T07:39:44;99550.59;;;18.52;61.38
63096;BME280;49184;55.596;37.770;2023-08-30T07:42:11;99603.81;;;18.97;61.07
63096;BME280;49184;55.596;37.770;2023-08-30T07:44:37;99581.34;;;18.83;61.69
63096;BME280;49184;55.596;37.770;2023-08-30T07:47:04;99589.41;;;18.88;61.30
63096;BME280;49184;55.596;37.770;2023-08-30T07:49:32;99567.81;;;18.62;61.01
63096;BME280;49184;55.596;37.770;2023-08-30T07:51:58;99578.34;;;18.72;60.46
63096;BME280;49184;55.596;37.770;2023-08-30T07:54:25;99563.59;;;18.68;60.07
63096;BME280;49184;55.596;37.770;2023-08-30T07:56:52;99586.19;;;18.86;60.57
63096;BME280;49184;55.596;37.770;2023-08-30T07:59:19;99585.66;;;18.80;60.35
63096;BME280;49184;55.596;37.770;2023-08-30T08:01:46;99569.59;;;18.54;61.30
63096;BME280;49184;55.596;37.770;2023-08-30T08:04:12;99614.97;;;18.81;61.14
63096;BME280;49184;55.596;37.770;2023-08-30T08:06:42;99543.94;;;18.38;61.14
63096;BME280;49184;55.596;37.770;2023-08-30T08:09:08;99600.81;;;18.70;60.37
63096;BME280;49184;55.596;37.770;2023-08-30T08:11:34;99564.81;;;18.51;60.69
63096;BME280;49184;55.596;37.770;2023-08-30T08:14:01;99609.13;;;18.86;59.91
63096;BME280;49184;55.596;37.770;2023-08-30T08:16:30;99593.19;;;18.99;60.10
63096;BME280;49184;55.596;37.770;2023-08-30T08:18:59;99584.97;;;19.02;60.47
63096;BME280;49184;55.596;37.770;2023-08-30T08:21:27;99587.06;;;19.09;59.96
63096;BME280;49184;55.596;37.770;2023-08-30T08:23:53;99577.25;;;19.12;59.32
63096;BME280;49184;55.596;37.770;2023-08-30T08:26:19;99568.94;;;19.12;58.89
63096;BME280;49184;55.596;37.770;2023-08-30T08:28:46;99567.03;;;19.16;58.55
63096;BME280;49184;55.596;37.770;2023-08-30T08:31:17;99628.16;;;19.62;58.82
63096;BME280;49184;55.596;37.770;2023-08-30T08:33:45;99595.78;;;19.27;58.89
63096;BME280;49184;55.596;37.770;2023-08-30T08:36:25;99560.47;;;19.05;58.75
63096;BME280;49184;55.596;37.770;2023-08-30T08:38:52;99600.75;;;19.37;58.36
63096;BME280;49184;55.596;37.770;2023-08-30T08:41:21;99596.34;;;19.36;57.76
63096;BME280;49184;55.596;37.770;2023-08-30T08:43:52;99634.97;;;19.64;57.66
63096;BME280;49184;55.596;37.770;2023-08-30T08:46:20;99589.94;;;19.32;57.71
63096;BME280;49184;55.596;37.770;2023-08-30T08:48:51;99640.53;;;19.64;57.34
63096;BME280;49184;55.596;37.770;2023-08-30T08:51:18;99581.09;;;19.07;57.82
63096;BME280;49184;55.596;37.770;2023-08-30T08:53:46;99626.34;;;19.31;58.03
63096;BME280;49184;55.596;37.770;2023-08-30T08:56:17;99611.09;;;19.21;58.89
63096;BME280;49184;55.596;37.770;2023-08-30T08:58:45;99622.59;;;19.23;58.38
63096;BME280;49184;55.596;37.770;2023-08-30T09:01:14;99642.03;;;19.42;58.77
63096;BME280;49184;55.596;37.770;2023-08-30T09:03:43;99604.75;;;19.20;58.49
63096;BME280;49184;55.596;37.770;2023-08-30T09:06:14;99644.44;;;19.44;57.82
63096;BME280;49184;55.596;37.770;2023-08-30T09:08:55;99642.16;;;19.30;58.88
63096;BME280;49184;55.596;37.770;2023-08-30T09:11:46;99629.53;;;19.33;58.29
63096;BME280;49184;55.596;37.770;2023-08-30T09:14:16;99614.09;;;19.32;57.73
63096;BME280;49184;55.596;37.770;2023-08-30T09:16:42;99657.00;;;19.57;57.71
63096;BME280;49184;55.596;37.770;2023-08-30T09:19:23;99601.75;;;19.29;57.61
63096;BME280;49184;55.596;37.770;2023-08-30T09:27:43;99660.91;;;19.37;57.22
63096;BME280;49184;55.596;37.770;2023-08-30T09:30:38;99685.22;;;19.24;58.43
63096;BME280;49184;55.596;37.770;2023-08-30T09:33:58;99628.69;;;18.93;57.51
63096;BME280;49184;55.596;37.770;2023-08-30T09:48:58;99616.56;;;19.76;56.89
63096;BME280;49184;55.596;37.770;2023-08-30T09:51:40;99634.66;;;19.89;57.04
63096;BME280;49184;55.596;37.770;2023-08-30T10:16:03;99617.03;;;20.01;55.50
63096;BME280;49184;55.596;37.770;2023-08-30T10:22:06;99684.78;;;20.42;55.38
63096;BME280;49184;55.596;37.770;2023-08-30T10:25:21;99657.72;;;20.16;54.51
63096;BME280;49184;55.596;37.770;2023-08-30T10:28:13;99658.94;;;19.95;55.46
63096;BME280;49184;55.596;37.770;2023-08-30T10:30:51;99659.88;;;20.03;55.13
63096;BME280;49184;55.596;37.770;2023-08-30T10:33:18;99616.34;;;19.84;55.68
63096;BME280;49184;55.596;37.770;2023-08-30T10:36:26;99654.34;;;20.26;55.12
63096;BME280;49184;55.596;37.770;2023-08-30T10:39:34;99678.91;;;20.47;56.24
63096;BME280;49184;55.596;37.770;2023-08-30T10:50:45;99673.44;;;21.00;55.17
63096;BME280;49184;55.596;37.770;2023-08-30T11:02:38;99608.34;;;20.75;52.54
63096;BME280;49184;55.596;37.770;2023-08-30T11:05:06;99620.16;;;20.68;54.70
63096;BME280;49184;55.596;37.770;2023-08-30T11:15:09;99644.16;;;21.06;53.97
63096;BME280;49184;55.596;37.770;2023-08-30T11:17:43;99624.16;;;20.97;52.39
63096;BME280;49184;55.596;37.770;2023-08-30T11:20:18;99633.56;;;20.89;52.73
63096;BME280;49184;55.596;37.770;2023-08-30T11:23:05;99621.94;;;20.80;52.01
63096;BME280;49184;55.596;37.770;2023-08-30T11:25:51;99636.91;;;21.02;53.69
63096;BME280;49184;55.596;37.770;2023-08-30T11:28:29;99656.34;;;21.28;54.43
63096;BME280;49184;55.596;37.770;2023-08-30T11:30:56;99671.91;;;21.33;52.33
63096;BME280;49184;55.596;37.770;2023-08-30T11:33:26;99602.81;;;21.05;51.50
63096;BME280;49184;55.596;37.770;2023-08-30T11:35:58;99620.34;;;21.09;51.09
63096;BME280;49184;55.596;37.770;2023-08-30T11:41:27;99642.38;;;21.51;53.18
63096;BME280;49184;55.596;37.770;2023-08-30T11:43:54;99619.03;;;21.60;52.88
63096;BME280;49184;55.596;37.770;2023-08-30T11:46:35;99626.41;;;21.45;51.43
63096;BME280;49184;55.596;37.770;2023-08-30T11:49:02;99629.25;;;21.52;51.31
63096;BME280;49184;55.596;37.770;2023-08-30T11:58:32;99596.94;;;21.40;49.79
63096;BME280;49184;55.596;37.770;2023-08-30T12:01:21;99643.44;;;21.73;51.79
63096;BME280;49184;55.596;37.770;2023-08-30T12:03:52;99602.66;;;21.54;50.55
63096;BME280;49184;55.596;37.770;2023-08-30T13:16:59;99533.16;;;21.58;49.87
63096;BME280;49184;55.596;37.770;2023-08-30T13:19:53;99514.31;;;21.41;51.73
63096;BME280;49184;55.596;37.770;2023-08-30T14:37:48;99423.13;;;21.64;53.18
63096;BME280;49184;55.596;37.770;2023-08-30T14:40:15;99415.97;;;21.60;52.85
63096;BME280;49184;55.596;37.770;2023-08-30T14:42:42;99431.88;;;21.63;53.02
63096;BME280;49184;55.596;37.770;2023-08-30T14:45:09;99405.91;;;21.48;52.99
63096;BME280;49184;55.596;37.770;2023-08-30T14:47:48;99401.63;;;21.57;53.27
63096;BME280;49184;55.596;37.770;2023-08-30T14:50:24;99403.63;;;21.61;53.00
63096;BME280;49184;55.596;37.770;2023-08-30T15:04:24;99319.84;;;21.21;54.75
63096;BME280;49184;55.596;37.770;2023-08-30T15:06:56;99336.94;;;21.23;55.03
63096;BME280;49184;55.596;37.770;2023-08-30T15:09:22;99374.47;;;21.40;55.27
63096;BME280;49184;55.596;37.770;2023-08-30T15:11:50;99347.50;;;21.03;55.27
63096;BME280;49184;55.596;37.770;2023-08-30T15:14:17;99397.50;;;21.41;56.04
63096;BME280;49184;55.596;37.770;2023-08-30T15:20:07;99453.94;;;21.45;55.62
63096;BME280;49184;55.596;37.770;2023-08-30T15:22:35;99404.97;;;20.96;56.23
63096;BME280;49184;55.596;37.770;2023-08-30T15:25:02;99478.81;;;21.30;56.41
63096;BME280;49184;55.596;37.770;2023-08-30T15:27:35;99426.31;;;20.88;56.84
63096;BME280;49184;55.596;37.770;2023-08-30T15:30:06;99418.72;;;20.81;56.54
63096;BME280;49184;55.596;37.770;2023-08-30T15:32:50;99426.97;;;20.74;56.68
63096;BME280;49184;55.596;37.770;2023-08-30T15:35:16;99451.56;;;20.76;57.42
63096;BME280;49184;55.596;37.770;2023-08-30T15:37:45;99424.72;;;20.53;57.69
63096;BME280;49184;55.596;37.770;2023-08-30T15:40:11;99497.75;;;20.84;58.49
63096;BME280;49184;55.596;37.770;2023-08-30T15:42:40;99484.75;;;20.61;57.53
63096;BME280;49184;55.596;37.770;2023-08-30T15:45:07;99473.72;;;20.42;59.64
63096;BME280;49184;55.596;37.770;2023-08-30T15:47:34;99489.16;;;20.39;60.06
63096;BME280;49184;55.596;37.770;2023-08-30T15:50:00;99491.03;;;20.32;60.23
63096;BME280;49184;55.596;37.770;2023-08-30T15:52:39;99448.00;;;19.92;60.96
63096;BME280;49184;55.596;37.770;2023-08-30T15:55:20;99508.81;;;20.27;60.99
63096;BME280;49184;55.596;37.770;2023-08-30T15:58:26;99451.81;;;19.80;61.25
63096;BME280;49184;55.596;37.770;2023-08-30T16:01:24;99488.09;;;19.94;60.37
63096;BME280;49184;55.596;37.770;2023-08-30T16:04:58;99450.66;;;19.62;60.37
63096;BME280;49184;55.596;37.770;2023-08-30T16:07:45;99497.28;;;19.76;60.98
63096;BME280;49184;55.596;37.770;2023-08-30T16:10:12;99448.81;;;19.46;60.97
63096;BME280;49184;55.596;37.770;2023-08-30T16:12:42;99495.13;;;19.65;61.29
63096;BME280;49184;55.596;37.770;2023-08-30T16:15:10;99479.69;;;19.45;61.48
63096;BME280;49184;55.596;37.770;2023-08-30T16:17:36;99486.47;;;19.47;61.88
63096;BME280;49184;55.596;37.770;2023-08-30T16:20:11;99505.88;;;19.47;61.86
63096;BME280;49184;55.596;37.770;2023-08-30T16:22:46;99457.63;;;19.10;62.57
63096;BME280;49184;55.596;37.770;2023-08-30T16:25:13;99467.84;;;19.06;63.17
63096;BME280;49184;55.596;37.770;2023-08-30T16:27:40;99524.19;;;19.33;64.15
63096;BME280;49184;55.596;37.770;2023-08-30T16:30:12;99500.44;;;19.12;63.97
63096;BME280;49184;55.596;37.770;2023-08-30T16:32:40;99464.69;;;18.84;63.74
63096;BME280;49184;55.596;37.770;2023-08-30T16:35:08;99474.19;;;18.87;64.53
63096;BME280;49184;55.596;37.770;2023-08-30T16:37:36;99517.22;;;19.00;64.28
63096;BME280;49184;55.596;37.770;2023-08-30T16:40:04;99538.00;;;19.10;64.30
63096;BME280;49184;55.596;37.770;2023-08-30T16:42:31;99480.09;;;18.66;64.99
63096;BME280;49184;55.596;37.770;2023-08-30T16:44:58;99499.19;;;18.71;64.55
63096;BME280;49184;55.596;37.770;2023-08-30T16:47:25;99504.72;;;18.71;64.91
63096;BME280;49184;55.596;37.770;2023-08-30T16:49:57;99498.50;;;18.58;65.11
63096;BME280;49184;55.596;37.770;2023-08-30T16:52:25;99494.41;;;18.52;65.51
63096;BME280;49184;55.596;37.770;2023-08-30T16:54:57;99498.72;;;18.49;66.08
63096;BME280;49184;55.596;37.770;2023-08-30T16:57:29;99519.69;;;18.50;66.03
63096;BME280;49184;55.596;37.770;2023-08-30T16:59:59;99539.66;;;18.60;66.63
63096;BME280;49184;55.596;37.770;2023-08-30T17:02:25;99534.69;;;18.49;66.56
63096;BME280;49184;55.596;37.770;2023-08-30T17:04:58;99533.38;;;18.43;66.72
63096;BME280;49184;55.596;37.770;2023-08-30T17:07:25;99529.97;;;18.34;66.52
63096;BME280;49184;55.596;37.770;2023-08-30T17:09:51;99529.91;;;18.30;66.76
63096;BME280;49184;55.596;37.770;2023-08-30T17:12:22;99550.91;;;18.31;66.78
63096;BME280;49184;55.596;37.770;2023-08-30T17:14:53;99559.63;;;18.34;67.31
63096;BME280;49184;55.596;37.770;2023-08-30T17:17:20;99532.72;;;18.15;67.44
63096;BME280;49184;55.596;37.770;2023-08-30T17:19:49;99542.34;;;18.05;67.35
63096;BME280;49184;55.596;37.770;2023-08-30T17:22:17;99557.41;;;18.23;67.66
63096;BME280;49184;55.596;37.770;2023-08-30T17:24:43;99497.47;;;17.80;67.98
63096;BME280;49184;55.596;37.770;2023-08-30T17:27:11;99506.22;;;17.82;67.87
63096;BME280;49184;55.596;37.770;2023-08-30T17:29:37;99548.22;;;18.03;67.96
63096;BME280;49184;55.596;37.770;2023-08-30T17:32:04;99552.50;;;18.01;68.55
63096;BME280;49184;55.596;37.770;2023-08-30T17:34:33;99505.00;;;17.67;68.27
63096;BME280;49184;55.596;37.770;2023-08-30T17:37:05;99506.19;;;17.66;68.30
63096;BME280;49184;55.596;37.770;2023-08-30T17:39:34;99555.56;;;17.96;68.26
63096;BME280;49184;55.596;37.770;2023-08-30T17:42:10;99515.97;;;17.64;68.69
63096;BME280;49184;55.596;37.770;2023-08-30T17:44:58;99548.84;;;17.81;68.82
63096;BME280;49184;55.596;37.770;2023-08-30T17:47:32;99510.81;;;17.62;68.95
63096;BME280;49184;55.596;37.770;2023-08-30T17:50:05;99566.88;;;17.91;69.25
63096;BME280;49184;55.596;37.770;2023-08-30T17:52:41;99541.25;;;17.78;70.03
63096;BME280;49184;55.596;37.770;2023-08-30T18:44:24;99507.19;;;17.02;70.81
63096;BME280;49184;55.596;37.770;2023-08-30T18:47:16;99508.25;;;16.97;70.80
63096;BME280;49184;55.596;37.770;2023-08-30T18:49:52;99578.91;;;17.38;70.95
63096;BME280;49184;55.596;37.770;2023-08-30T18:52:24;99524.34;;;16.95;71.04
63096;BME280;49184;55.596;37.770;2023-08-30T18:54:51;99513.09;;;16.88;70.92
63096;BME280;49184;55.596;37.770;2023-08-30T18:57:18;99575.97;;;17.19;71.01
63096;BME280;49184;55.596;37.770;2023-08-30T18:59:46;99529.56;;;16.84;71.27
63096;BME280;49184;55.596;37.770;2023-08-30T19:02:13;99535.91;;;16.85;71.33
63096;BME280;49184;55.596;37.770;2023-08-30T19:04:40;99541.22;;;16.78;71.75
63096;BME280;49184;55.596;37.770;2023-08-30T19:07:07;99556.38;;;16.84;71.72
63096;BME280;49184;55.596;37.770;2023-08-30T19:09:35;99545.47;;;16.75;71.68
63096;BME280;49184;55.596;37.770;2023-08-30T19:12:02;99564.88;;;16.91;71.96
63096;BME280;49184;55.596;37.770;2023-08-30T19:14:37;99565.34;;;16.93;71.76
63096;BME280;49184;55.596;37.770;2023-08-30T19:20:32;99568.22;;;16.84;72.03
63096;BME280;49184;55.596;37.770;2023-08-30T23:48:50;99545.16;;;14.91;77.23
